createdAt,value
2023-04-11T00:00:45.841Z,10.86
2023-04-11T00:03:20.366Z,10.83
2023-04-11T00:05:50.697Z,10.77
2023-04-11T00:08:21.119Z,10.76
2023-04-11T00:10:51.338Z,10.69
2023-04-11T00:13:24.113Z,10.61
2023-04-11T00:15:56.032Z,10.57
2023-04-11T00:18:28.857Z,10.66
2023-04-11T00:20:59.032Z,10.70
2023-04-11T00:23:29.377Z,10.66
2023-04-11T00:25:59.593Z,10.56
2023-04-11T00:28:29.784Z,10.63
2023-04-11T00:30:59.951Z,10.58
2023-04-11T00:33:32.838Z,10.54
2023-04-11T00:36:03.129Z,10.53
2023-04-11T00:38:33.270Z,10.50
2023-04-11T00:41:03.634Z,10.54
2023-04-11T00:43:33.781Z,10.47
2023-04-11T00:46:04.196Z,10.54
2023-04-11T00:48:36.986Z,10.53
2023-04-11T00:51:07.527Z,10.59
2023-04-11T00:53:39.165Z,10.64
2023-04-11T00:56:10.279Z,10.68
2023-04-11T00:58:40.799Z,10.62
2023-04-11T01:01:12.107Z,10.65
2023-04-11T01:03:48.539Z,10.62
2023-04-11T01:06:22.990Z,10.63
2023-04-11T01:08:53.779Z,10.61
2023-04-11T01:11:24.413Z,10.54
2023-04-11T01:13:55.752Z,10.65
2023-04-11T01:16:25.969Z,10.65
2023-04-11T01:18:59.208Z,10.60
2023-04-11T01:21:30.223Z,10.61
2023-04-11T01:24:03.992Z,10.60
2023-04-11T01:26:34.200Z,10.58
2023-04-11T01:29:05.654Z,10.58
2023-04-11T01:31:35.956Z,10.57
2023-04-11T01:34:07.711Z,10.58
2023-04-11T01:36:38.344Z,10.57
2023-04-11T01:39:11.437Z,10.65
2023-04-11T01:41:42.678Z,10.65
2023-04-11T01:44:13.001Z,10.64
2023-04-11T01:46:43.322Z,10.63
2023-04-11T01:49:15.689Z,10.62
2023-04-11T01:51:46.142Z,10.60
2023-04-11T01:54:19.216Z,10.66
2023-04-11T01:56:49.728Z,10.53
2023-04-11T01:59:20.118Z,10.72
2023-04-11T02:01:50.540Z,10.73
2023-04-11T02:04:20.867Z,10.76
2023-04-11T02:06:51.055Z,10.67
2023-04-11T02:09:25.237Z,10.78
2023-04-11T02:11:57.311Z,10.83
2023-04-11T02:14:30.188Z,10.81
2023-04-11T02:17:00.790Z,10.82
2023-04-11T02:19:31.359Z,10.75
2023-04-11T02:22:02.175Z,10.80
2023-04-11T02:24:35.028Z,10.80
2023-04-11T02:27:05.914Z,10.63
2023-04-11T02:29:37.208Z,10.78
2023-04-11T02:32:07.528Z,10.73
2023-04-11T02:34:37.863Z,10.68
2023-04-11T02:37:08.088Z,10.63
2023-04-11T02:39:40.980Z,10.62
2023-04-11T02:42:11.398Z,10.63
2023-04-11T02:44:41.626Z,10.61
2023-04-11T02:47:11.984Z,10.60
2023-04-11T02:49:44.210Z,10.56
2023-04-11T02:52:19.281Z,10.57
2023-04-11T02:54:52.091Z,10.55
2023-04-11T02:57:22.258Z,10.37
2023-04-11T02:59:52.548Z,10.52
2023-04-11T03:02:30.453Z,10.42
2023-04-11T03:05:04.367Z,10.46
2023-04-11T03:07:38.770Z,10.42
2023-04-11T03:10:12.592Z,10.36
2023-04-11T03:12:43.159Z,10.25
2023-04-11T03:15:15.734Z,10.22
2023-04-11T03:17:45.754Z,10.10
2023-04-11T03:20:19.958Z,10.01
2023-04-11T03:22:53.747Z,9.93
2023-04-11T03:25:28.411Z,9.89
2023-04-11T03:27:59.146Z,9.81
2023-04-11T03:30:29.601Z,9.80
2023-04-11T03:33:01.437Z,9.76
2023-04-11T03:35:33.168Z,9.70
2023-04-11T03:38:03.525Z,9.69
2023-04-11T03:40:36.700Z,9.72
2023-04-11T03:43:14.615Z,9.68
2023-04-11T03:45:44.858Z,9.67
2023-04-11T03:48:26.744Z,9.69
2023-04-11T03:51:02.273Z,9.68
2023-04-11T03:53:40.896Z,9.67
2023-04-11T03:56:27.202Z,9.69
2023-04-11T03:58:57.846Z,9.65
2023-04-11T04:01:32.334Z,9.65
2023-04-11T04:04:06.699Z,9.45
2023-04-11T04:06:40.472Z,9.63
2023-04-11T04:09:11.460Z,9.61
2023-04-11T04:12:02.004Z,9.62
2023-04-11T04:14:49.121Z,9.58
2023-04-11T04:17:20.960Z,9.53
2023-04-11T04:19:51.984Z,9.40
2023-04-11T04:22:24.032Z,9.47
2023-04-11T04:24:58.583Z,9.48
2023-04-11T04:27:34.669Z,9.43
2023-04-11T04:30:05.811Z,9.47
2023-04-11T04:32:49.132Z,9.47
2023-04-11T04:35:19.527Z,9.41
2023-04-11T04:37:50.304Z,9.36
2023-04-11T04:40:55.089Z,9.51
2023-04-11T04:43:32.582Z,9.51
2023-04-11T04:46:23.864Z,9.53
2023-04-11T04:48:56.965Z,9.52
2023-04-11T04:51:30.448Z,9.57
2023-04-11T04:54:00.691Z,9.53
2023-04-11T04:56:33.278Z,9.56
2023-04-11T04:59:06.333Z,9.55
2023-04-11T05:01:40.361Z,9.58
2023-04-11T05:04:14.228Z,9.61
2023-04-11T05:06:55.768Z,9.62
2023-04-11T05:09:26.649Z,9.73
2023-04-11T05:12:06.710Z,9.71
2023-04-11T05:14:42.439Z,9.75
2023-04-11T05:17:13.021Z,9.78
2023-04-11T05:19:44.109Z,9.77
2023-04-11T05:22:17.063Z,9.87
2023-04-11T05:24:52.073Z,9.81
2023-04-11T05:27:22.319Z,9.86
2023-04-11T05:29:55.476Z,9.89
2023-04-11T05:32:26.098Z,9.93
2023-04-11T05:34:59.257Z,9.96
2023-04-11T05:37:38.790Z,9.88
2023-04-11T05:40:11.857Z,9.97
2023-04-11T05:42:42.550Z,10.06
2023-04-11T05:45:15.816Z,10.06
2023-04-11T05:47:46.588Z,10.01
2023-04-11T05:50:17.717Z,10.06
2023-04-11T05:52:47.638Z,10.01
2023-04-11T05:55:18.340Z,10.08
2023-04-11T05:57:48.593Z,9.99
2023-04-11T06:00:24.457Z,10.23
2023-04-11T06:02:55.343Z,10.30
2023-04-11T06:05:25.687Z,10.35
2023-04-11T06:07:56.203Z,10.34
2023-04-11T06:10:26.593Z,10.39
2023-04-11T06:12:57.353Z,10.29
2023-04-11T06:15:30.666Z,10.57
2023-04-11T06:18:01.002Z,10.65
2023-04-11T06:20:31.462Z,10.76
2023-04-11T06:23:02.208Z,10.88
2023-04-11T06:25:32.618Z,10.90
2023-04-11T06:28:02.794Z,11.00
2023-04-11T06:30:36.092Z,11.08
2023-04-11T06:33:06.349Z,11.03
2023-04-11T06:35:36.977Z,10.99
2023-04-11T06:38:07.551Z,11.10
2023-04-11T06:40:39.141Z,11.26
2023-04-11T06:43:09.553Z,11.27
2023-04-11T06:45:42.890Z,11.15
2023-04-11T06:48:13.117Z,10.99
2023-04-11T06:50:43.408Z,10.96
2023-04-11T06:53:13.689Z,11.00
2023-04-11T06:55:43.817Z,11.18
2023-04-11T06:58:14.054Z,11.18
2023-04-11T07:00:47.170Z,11.32
2023-04-11T07:03:17.535Z,11.36
2023-04-11T07:05:51.012Z,11.52
2023-04-11T07:08:21.759Z,11.41
2023-04-11T07:10:54.020Z,11.57
2023-04-11T07:13:24.780Z,11.65
2023-04-11T07:15:58.666Z,11.90
2023-04-11T07:18:29.010Z,12.02
2023-04-11T07:20:59.244Z,12.07
2023-04-11T07:23:29.434Z,12.17
2023-04-11T07:25:59.628Z,12.25
2023-04-11T07:28:31.512Z,12.35
2023-04-11T07:31:04.340Z,12.43
2023-04-11T07:33:34.697Z,12.34
2023-04-11T07:36:05.042Z,12.34
2023-04-11T07:38:37.868Z,12.36
2023-04-11T07:41:09.024Z,12.54
2023-04-11T07:43:39.527Z,12.56
2023-04-11T07:46:12.618Z,12.63
2023-04-11T07:48:42.919Z,12.69
2023-04-11T07:51:13.056Z,12.46
2023-04-11T07:53:43.232Z,12.57
2023-04-11T07:56:14.153Z,12.64
2023-04-11T07:58:44.617Z,12.81
2023-04-11T08:01:27.215Z,12.95
2023-04-11T08:04:00.105Z,13.08
2023-04-11T08:06:31.978Z,13.14
2023-04-11T08:09:02.266Z,13.32
2023-04-11T08:11:32.904Z,13.04
2023-04-11T08:14:03.563Z,13.33
2023-04-11T08:16:37.841Z,13.31
2023-04-11T08:19:08.078Z,13.48
2023-04-11T08:21:38.291Z,13.67
2023-04-11T08:24:08.870Z,13.66
2023-04-11T08:26:39.692Z,13.70
2023-04-11T08:29:11.530Z,13.78
2023-04-11T08:31:45.957Z,13.98
2023-04-11T08:34:17.600Z,14.14
2023-04-11T08:36:47.814Z,14.15
2023-04-11T08:39:17.990Z,13.98
2023-04-11T08:41:48.375Z,13.90
2023-04-11T08:44:18.816Z,13.88
2023-04-11T08:46:51.786Z,14.05
2023-04-11T08:49:22.103Z,14.15
2023-04-11T08:51:56.878Z,14.21
2023-04-11T08:54:27.836Z,14.18
2023-04-11T08:56:58.788Z,14.11
2023-04-11T08:59:28.719Z,14.15
2023-04-11T09:02:10.094Z,14.21
2023-04-11T09:04:44.916Z,14.22
2023-04-11T09:07:16.082Z,14.16
2023-04-11T09:09:46.349Z,14.43
2023-04-11T09:12:17.466Z,14.52
2023-04-11T09:14:47.878Z,14.50
2023-04-11T09:17:20.727Z,14.44
2023-04-11T09:19:51.033Z,14.51
2023-04-11T09:22:21.460Z,14.46
2023-04-11T09:25:05.397Z,14.52
2023-04-11T09:27:35.785Z,14.71
2023-04-11T09:30:06.109Z,14.86
2023-04-11T09:32:39.199Z,15.00
2023-04-11T09:35:15.939Z,14.91
2023-04-11T09:37:47.975Z,15.20
2023-04-11T09:40:21.255Z,15.30
2023-04-11T09:42:53.052Z,15.30
2023-04-11T09:45:24.809Z,15.42
2023-04-11T09:47:59.516Z,15.43
2023-04-11T09:50:32.599Z,15.32
2023-04-11T09:53:03.251Z,15.48
2023-04-11T09:55:33.740Z,15.54
2023-04-11T09:58:04.289Z,15.34
2023-04-11T10:00:35.600Z,15.49
2023-04-11T10:03:09.240Z,15.44
2023-04-11T10:05:41.384Z,15.30
2023-04-11T10:08:17.593Z,15.23
2023-04-11T10:10:50.995Z,15.14
2023-04-11T10:13:42.997Z,14.89
2023-04-11T10:16:15.653Z,14.97
2023-04-11T10:19:28.290Z,15.18
2023-04-11T10:22:01.415Z,15.33
2023-04-11T10:24:31.670Z,15.36
2023-04-11T10:27:04.421Z,15.17
2023-04-11T10:29:51.837Z,15.72
2023-04-11T10:32:24.412Z,15.79
2023-04-11T10:35:31.141Z,16.03
2023-04-11T10:38:03.900Z,16.21
2023-04-11T10:40:34.140Z,15.95
2023-04-11T10:43:23.664Z,16.09
2023-04-11T10:46:23.508Z,16.13
2023-04-11T10:49:00.969Z,16.25
2023-04-11T10:51:32.313Z,16.22
2023-04-11T10:54:06.390Z,16.32
2023-04-11T10:56:57.826Z,16.24
2023-04-11T11:00:12.873Z,16.34
2023-04-11T11:02:45.895Z,16.34
2023-04-11T11:05:23.629Z,16.24
2023-04-11T11:07:56.221Z,16.14
2023-04-11T11:10:43.913Z,15.89
2023-04-11T11:13:14.080Z,16.11
2023-04-11T11:15:51.473Z,16.11
2023-04-11T11:18:22.348Z,16.10
2023-04-11T11:20:58.402Z,16.21
2023-04-11T11:23:28.715Z,16.35
2023-04-11T11:26:03.077Z,16.37
2023-04-11T11:28:33.289Z,16.16
2023-04-11T11:31:04.316Z,16.24
2023-04-11T11:33:36.599Z,16.22
2023-04-11T11:36:07.777Z,16.28
2023-04-11T11:38:39.326Z,16.07
2023-04-11T11:41:13.091Z,15.63
2023-04-11T11:43:43.608Z,15.59
2023-04-11T11:46:17.853Z,15.58
2023-04-11T11:49:02.336Z,15.71
2023-04-11T11:51:43.918Z,15.98
2023-04-11T11:54:15.161Z,16.50
2023-04-11T11:56:54.523Z,16.72
2023-04-11T11:59:30.445Z,17.08
2023-04-11T12:02:00.994Z,17.27
2023-04-11T12:04:31.521Z,17.54
2023-04-11T12:07:11.466Z,17.63
2023-04-11T12:09:43.429Z,17.58
2023-04-11T12:12:18.899Z,17.60
2023-04-11T12:14:56.358Z,17.33
2023-04-11T12:17:26.582Z,17.10
2023-04-11T12:19:59.381Z,17.09
2023-04-11T12:22:29.804Z,16.63
2023-04-11T12:25:08.234Z,16.76
2023-04-11T12:27:41.846Z,16.82
2023-04-11T12:30:13.573Z,16.91
2023-04-11T12:32:44.025Z,16.89
2023-04-11T12:35:17.519Z,16.91
2023-04-11T12:37:48.155Z,16.91
2023-04-11T12:40:18.447Z,16.56
2023-04-11T12:42:56.458Z,16.74
2023-04-11T12:45:28.171Z,16.96
2023-04-11T12:47:58.371Z,17.02
2023-04-11T12:50:28.595Z,17.17
2023-04-11T12:52:58.810Z,17.29
2023-04-11T12:55:30.195Z,17.51
2023-04-11T12:58:03.098Z,17.49
2023-04-11T13:00:33.897Z,17.56
2023-04-11T13:03:05.028Z,17.49
2023-04-11T13:05:37.452Z,17.35
2023-04-11T13:08:10.080Z,17.24
2023-04-11T13:10:41.134Z,17.16
2023-04-11T13:15:48.027Z,16.79
2023-04-11T13:18:18.609Z,16.81
2023-04-11T13:20:49.116Z,16.86
2023-04-11T13:23:19.546Z,16.93
2023-04-11T13:25:49.826Z,16.98
2023-04-11T13:28:22.712Z,17.14
2023-04-11T13:30:53.306Z,17.49
2023-04-11T13:33:23.869Z,18.04
2023-04-11T13:35:54.081Z,18.17
2023-04-11T13:38:24.264Z,18.22
2023-04-11T13:40:54.593Z,18.37
2023-04-11T13:43:28.307Z,18.59
2023-04-11T13:45:58.844Z,18.58
2023-04-11T13:48:29.322Z,18.58
2023-04-11T13:51:00.255Z,18.49
2023-04-11T13:53:30.898Z,18.34
2023-04-11T13:56:01.182Z,18.16
2023-04-11T13:58:35.105Z,18.28
2023-04-11T14:01:05.747Z,18.06
2023-04-11T14:03:36.646Z,18.00
2023-04-11T14:06:09.169Z,17.69
2023-04-11T14:08:39.995Z,17.48
2023-04-11T14:11:11.055Z,17.44
2023-04-11T14:13:43.820Z,17.58
2023-04-11T14:16:14.698Z,17.61
2023-04-11T14:18:45.570Z,17.65
2023-04-11T14:21:15.831Z,17.53
2023-04-11T14:23:46.167Z,17.58
2023-04-11T14:26:16.355Z,17.52
2023-04-11T14:28:49.114Z,17.58
2023-04-11T14:31:19.315Z,17.55
2023-04-11T14:33:49.600Z,17.52
2023-04-11T14:36:19.772Z,17.46
2023-04-11T14:38:50.012Z,17.46
2023-04-11T14:41:20.823Z,17.37
2023-04-11T14:43:53.605Z,17.33
2023-04-11T14:46:23.854Z,17.47
2023-04-11T14:48:54.305Z,17.53
2023-04-11T14:51:27.380Z,17.55
2023-04-11T14:53:59.973Z,17.56
2023-04-11T14:56:30.956Z,17.59
2023-04-11T14:59:06.840Z,17.61
2023-04-11T15:01:37.122Z,17.53
2023-04-11T15:04:07.717Z,17.50
2023-04-11T15:06:38.284Z,17.60
2023-04-11T15:09:09.113Z,17.68
2023-04-11T15:11:39.652Z,17.71
2023-04-11T15:14:12.419Z,17.72
2023-04-11T15:16:42.655Z,17.73
2023-04-11T15:19:12.892Z,17.65
2023-04-11T15:21:43.070Z,17.61
2023-04-11T15:24:13.559Z,17.50
2023-04-11T15:26:47.072Z,17.64
2023-04-11T15:29:20.273Z,17.64
2023-04-11T15:31:50.507Z,17.75
2023-04-11T15:34:23.541Z,17.91
2023-04-11T15:36:53.808Z,17.93
2023-04-11T15:39:24.236Z,17.98
2023-04-11T15:41:54.452Z,17.81
2023-04-11T15:44:28.510Z,17.82
2023-04-11T15:46:58.947Z,17.80
2023-04-11T15:49:29.210Z,18.05
2023-04-11T15:51:59.789Z,18.06
2023-04-11T15:54:29.994Z,18.16
2023-04-11T15:57:00.191Z,17.97
2023-04-11T15:59:33.682Z,18.07
2023-04-11T16:02:03.959Z,18.06
2023-04-11T16:04:34.416Z,18.07
2023-04-11T16:07:05.984Z,17.97
2023-04-11T16:09:36.188Z,18.08
2023-04-11T16:12:07.606Z,18.02
2023-04-11T16:14:40.289Z,18.03
2023-04-11T16:17:10.648Z,17.94
2023-04-11T16:19:41.640Z,17.78
2023-04-11T16:22:11.566Z,17.69
2023-04-11T16:24:41.820Z,17.59
2023-04-11T16:27:12.090Z,17.51
2023-04-11T16:29:45.022Z,17.45
2023-04-11T16:32:15.343Z,17.48
2023-04-11T16:34:45.817Z,17.68
2023-04-11T16:37:16.513Z,17.69
2023-04-11T16:39:46.823Z,17.80
2023-04-11T16:42:17.242Z,17.83
2023-04-11T16:44:50.001Z,17.61
2023-04-11T16:47:20.703Z,17.49
2023-04-11T16:49:51.010Z,17.56
2023-04-11T16:52:21.639Z,17.54
2023-04-11T16:54:52.011Z,17.46
2023-04-11T16:57:22.471Z,17.54
2023-04-11T16:59:55.269Z,17.53
2023-04-11T17:02:25.693Z,17.51
2023-04-11T17:04:56.197Z,17.38
2023-04-11T17:07:28.671Z,17.43
2023-04-11T17:09:58.828Z,17.40
2023-04-11T17:12:29.175Z,17.35
2023-04-11T17:15:03.204Z,17.30
2023-04-11T17:20:25.828Z,17.14
2023-04-11T17:23:05.805Z,17.12
2023-04-11T17:25:40.526Z,17.09
2023-04-11T17:28:16.999Z,17.08
2023-04-11T17:30:54.529Z,17.05
2023-04-11T17:33:28.476Z,16.97
2023-04-11T17:36:06.872Z,16.92
2023-04-11T17:38:49.228Z,16.87
2023-04-11T17:41:39.265Z,16.82
2023-04-11T17:47:18.827Z,16.71
2023-04-11T17:49:58.135Z,16.69
2023-04-11T17:52:29.093Z,16.63
2023-04-11T17:55:03.801Z,16.59
2023-04-11T17:57:40.088Z,16.52
2023-04-11T18:00:30.602Z,16.42
2023-04-11T18:03:12.781Z,16.37
2023-04-11T18:06:15.167Z,16.40
2023-04-11T18:09:00.634Z,16.35
2023-04-11T18:11:43.163Z,16.34
2023-04-11T18:14:23.213Z,16.25
2023-04-11T18:17:04.426Z,16.24
2023-04-11T18:19:46.242Z,16.23
2023-04-11T18:22:17.414Z,16.01
2023-04-11T18:24:52.822Z,16.11
2023-04-11T18:27:29.776Z,16.09
2023-04-11T18:30:09.246Z,15.86
2023-04-11T18:32:51.093Z,15.98
2023-04-11T18:35:32.919Z,15.87
2023-04-11T18:38:12.068Z,15.89
2023-04-11T18:40:55.420Z,15.88
2023-04-11T18:43:40.620Z,15.84
2023-04-11T18:46:15.231Z,15.79
2023-04-11T18:48:51.134Z,15.74
2023-04-11T18:51:27.496Z,15.58
2023-04-11T18:54:03.593Z,15.68
2023-04-11T18:56:40.546Z,15.60
2023-04-11T18:59:15.836Z,15.61
2023-04-11T19:01:51.927Z,15.62
2023-04-11T19:04:26.351Z,15.60
2023-04-11T19:07:04.124Z,15.51
2023-04-11T19:09:51.022Z,15.56
2023-04-11T19:12:27.598Z,15.47
2023-04-11T19:15:06.075Z,15.38
2023-04-11T19:17:52.847Z,15.29
2023-04-11T19:20:33.267Z,15.20
2023-04-11T19:23:18.382Z,15.04
2023-04-11T19:25:58.294Z,14.95
2023-04-11T19:28:35.366Z,14.88
2023-04-11T19:31:05.688Z,14.87
2023-04-11T19:33:40.101Z,14.67
2023-04-11T19:36:19.979Z,14.76
2023-04-11T19:39:14.449Z,14.70
2023-04-11T19:42:13.428Z,14.58
2023-04-11T19:44:52.166Z,14.57
2023-04-11T19:47:30.050Z,14.55
2023-04-11T19:50:07.681Z,14.52
2023-04-11T19:52:45.858Z,14.31
2023-04-11T19:55:32.411Z,14.37
2023-04-11T19:58:07.067Z,14.24
2023-04-11T20:00:45.608Z,13.99
2023-04-11T20:03:23.426Z,13.79
2023-04-11T20:06:05.830Z,13.67
2023-04-11T20:08:43.253Z,13.39
2023-04-11T20:11:23.434Z,13.35
2023-04-11T20:13:59.964Z,13.40
2023-04-11T20:16:40.792Z,13.40
2023-04-11T20:19:15.575Z,13.41
2023-04-11T20:21:51.006Z,13.29
2023-04-11T20:24:26.407Z,13.27
2023-04-11T20:27:02.398Z,13.19
2023-04-11T20:29:39.368Z,13.15
2023-04-11T20:32:12.947Z,13.08
2023-04-11T20:34:58.629Z,12.85
2023-04-11T20:37:36.784Z,12.69
2023-04-11T20:40:14.779Z,12.72
2023-04-11T20:42:58.560Z,12.63
2023-04-11T20:45:36.365Z,12.64
2023-04-11T20:48:13.891Z,12.65
2023-04-11T20:50:48.977Z,12.60
2023-04-11T20:53:28.388Z,12.63
2023-04-11T20:56:06.558Z,12.56
2023-04-11T20:58:56.978Z,12.40
2023-04-11T21:01:38.447Z,12.65
2023-04-11T21:04:19.775Z,12.63
2023-04-11T21:06:55.404Z,12.65
2023-04-11T21:09:31.940Z,12.53
2023-04-11T21:12:13.533Z,12.61
2023-04-11T21:14:54.124Z,12.50
2023-04-11T21:17:31.572Z,12.56
2023-04-11T21:20:12.502Z,12.58
2023-04-11T21:22:45.529Z,12.66
2023-04-11T21:25:24.489Z,12.52
2023-04-11T21:28:00.573Z,12.50
2023-04-11T21:30:36.902Z,12.42
2023-04-11T21:33:12.349Z,12.43
2023-04-11T21:35:52.405Z,12.33
2023-04-11T21:38:31.991Z,12.46
2023-04-11T21:41:03.223Z,12.42
2023-04-11T21:43:40.319Z,12.35
2023-04-11T21:46:21.659Z,12.37
2023-04-11T21:48:59.048Z,12.41
2023-04-11T21:51:36.361Z,12.33
2023-04-11T21:54:12.282Z,12.34
2023-04-11T21:56:47.099Z,12.35
2023-04-11T21:59:19.747Z,12.41
2023-04-11T22:01:59.261Z,12.37
2023-04-11T22:04:51.306Z,12.46
2023-04-11T22:07:48.159Z,12.41
2023-04-11T22:10:41.114Z,12.40
2023-04-11T22:13:21.413Z,12.52
2023-04-11T22:16:05.682Z,12.54
2023-04-11T22:18:53.670Z,12.50
2023-04-11T22:21:29.662Z,12.52
2023-04-11T22:24:10.866Z,12.60
2023-04-11T22:26:58.484Z,12.57
2023-04-11T22:29:36.826Z,12.48
2023-04-11T22:32:10.896Z,12.44
2023-04-11T22:34:45.223Z,12.38
2023-04-11T22:37:34.129Z,12.33
2023-04-11T22:40:07.797Z,12.34
2023-04-11T22:42:47.167Z,12.26
2023-04-11T22:45:22.153Z,12.34
2023-04-11T22:48:08.962Z,12.37
2023-04-11T22:51:00.198Z,12.30
2023-04-11T22:53:37.761Z,12.37
2023-04-11T22:56:15.526Z,12.38
2023-04-11T22:58:57.551Z,12.32
2023-04-11T23:01:30.987Z,12.29
2023-04-11T23:04:13.509Z,12.31
2023-04-11T23:06:51.226Z,12.30
2023-04-11T23:09:27.657Z,12.16
2023-04-11T23:12:19.978Z,12.31
2023-04-11T23:15:05.667Z,12.29
2023-04-11T23:17:48.306Z,12.17
2023-04-11T23:20:22.602Z,12.30
2023-04-11T23:23:07.911Z,12.33
2023-04-11T23:25:50.784Z,12.23
2023-04-11T23:28:28.338Z,12.21
2023-04-11T23:31:01.371Z,12.10
2023-04-11T23:33:34.630Z,12.21
2023-04-11T23:36:08.042Z,12.11
2023-04-11T23:38:42.503Z,12.11
2023-04-11T23:41:19.781Z,12.20
2023-04-11T23:43:58.201Z,12.15
2023-04-11T23:46:37.501Z,12.19
2023-04-11T23:49:14.101Z,12.16
2023-04-11T23:51:57.701Z,12.09
2023-04-11T23:54:32.698Z,12.15
2023-04-11T23:57:12.213Z,12.12
2023-04-11T23:59:48.617Z,12.03
